sensor_id;sensor_type;location;lat;lon;timestamp;pressure;altitude;pressure_sealevel;temperature;humidity
42519;BME280;28147;47.520;18.920;2022-11-15T00:01:32;98866.00;;;11.73;54.09
42519;BME280;28147;47.520;18.920;2022-11-15T00:03:58;98871.72;;;11.88;53.85
42519;BME280;28147;47.520;18.920;2022-11-15T00:06:23;98869.56;;;11.97;53.44
42519;BME280;28147;47.520;18.920;2022-11-15T00:08:48;98870.47;;;12.14;52.76
42519;BME280;28147;47.520;18.920;2022-11-15T00:11:14;98872.94;;;12.16;52.28
42519;BME280;28147;47.520;18.920;2022-11-15T00:13:39;98870.94;;;12.23;51.70
42519;BME280;28147;47.520;18.920;2022-11-15T00:16:05;98867.69;;;12.33;50.83
42519;BME280;28147;47.520;18.920;2022-11-15T00:18:31;98875.25;;;12.48;50.15
42519;BME280;28147;47.520;18.920;2022-11-15T00:21:03;98871.63;;;12.65;49.87
42519;BME280;28147;47.520;18.920;2022-11-15T00:23:29;98866.63;;;12.57;50.04
42519;BME280;28147;47.520;18.920;2022-11-15T00:25:58;98867.09;;;12.66;49.88
42519;BME280;28147;47.520;18.920;2022-11-15T00:28:24;98852.00;;;12.60;50.04
42519;BME280;28147;47.520;18.920;2022-11-15T00:30:50;98848.03;;;12.62;49.54
42519;BME280;28147;47.520;18.920;2022-11-15T00:33:15;98850.50;;;12.40;50.39
42519;BME280;28147;47.520;18.920;2022-11-15T00:35:41;98846.66;;;12.60;50.01
42519;BME280;28147;47.520;18.920;2022-11-15T00:38:06;98854.47;;;12.26;51.02
42519;BME280;28147;47.520;18.920;2022-11-15T00:40:31;98849.94;;;12.15;50.88
42519;BME280;28147;47.520;18.920;2022-11-15T00:42:57;98855.16;;;11.98;51.66
42519;BME280;28147;47.520;18.920;2022-11-15T00:45:23;98848.47;;;11.24;52.99
42519;BME280;28147;47.520;18.920;2022-11-15T00:47:49;98846.81;;;10.62;54.34
42519;BME280;28147;47.520;18.920;2022-11-15T00:50:15;98856.47;;;9.38;56.88
42519;BME280;28147;47.520;18.920;2022-11-15T00:52:40;98860.56;;;9.02;57.88
42519;BME280;28147;47.520;18.920;2022-11-15T00:55:06;98861.91;;;9.18;58.26
42519;BME280;28147;47.520;18.920;2022-11-15T00:57:31;98860.84;;;9.26;57.31
42519;BME280;28147;47.520;18.920;2022-11-15T00:59:57;98859.69;;;9.09;57.99
42519;BME280;28147;47.520;18.920;2022-11-15T01:02:22;98859.81;;;8.89;59.04
42519;BME280;28147;47.520;18.920;2022-11-15T01:04:47;98848.53;;;9.32;58.57
42519;BME280;28147;47.520;18.920;2022-11-15T01:07:13;98846.47;;;9.90;57.14
42519;BME280;28147;47.520;18.920;2022-11-15T01:09:38;98843.53;;;9.48;58.69
42519;BME280;28147;47.520;18.920;2022-11-15T01:12:04;98844.31;;;9.56;58.78
42519;BME280;28147;47.520;18.920;2022-11-15T01:14:29;98845.06;;;8.99;60.58
42519;BME280;28147;47.520;18.920;2022-11-15T01:16:55;98842.75;;;9.41;59.76
42519;BME280;28147;47.520;18.920;2022-11-15T01:19:20;98835.69;;;9.60;59.28
42519;BME280;28147;47.520;18.920;2022-11-15T01:21:48;98822.88;;;10.19;58.01
42519;BME280;28147;47.520;18.920;2022-11-15T01:24:14;98822.78;;;10.07;58.23
42519;BME280;28147;47.520;18.920;2022-11-15T01:26:39;98814.66;;;10.27;58.14
42519;BME280;28147;47.520;18.920;2022-11-15T01:29:05;98806.13;;;10.37;57.73
42519;BME280;28147;47.520;18.920;2022-11-15T01:31:30;98813.88;;;10.57;57.58
42519;BME280;28147;47.520;18.920;2022-11-15T01:33:55;98809.72;;;10.79;57.08
42519;BME280;28147;47.520;18.920;2022-11-15T01:36:21;98812.69;;;10.71;56.51
42519;BME280;28147;47.520;18.920;2022-11-15T01:38:53;98804.50;;;10.54;56.82
42519;BME280;28147;47.520;18.920;2022-11-15T01:41:22;98811.25;;;10.38;57.23
42519;BME280;28147;47.520;18.920;2022-11-15T01:43:52;98801.16;;;10.22;58.79
42519;BME280;28147;47.520;18.920;2022-11-15T01:46:30;98804.25;;;10.74;57.27
42519;BME280;28147;47.520;18.920;2022-11-15T01:49:01;98810.97;;;11.25;55.47
42519;BME280;28147;47.520;18.920;2022-11-15T01:51:29;98803.38;;;11.52;54.46
42519;BME280;28147;47.520;18.920;2022-11-15T01:53:59;98791.00;;;11.93;52.13
42519;BME280;28147;47.520;18.920;2022-11-15T01:56:29;98802.72;;;12.15;51.13
42519;BME280;28147;47.520;18.920;2022-11-15T01:58:58;98801.91;;;12.15;50.83
42519;BME280;28147;47.520;18.920;2022-11-15T02:01:26;98794.38;;;12.24;51.23
42519;BME280;28147;47.520;18.920;2022-11-15T02:03:59;98801.78;;;12.22;51.21
42519;BME280;28147;47.520;18.920;2022-11-15T02:06:26;98791.19;;;12.38;50.23
42519;BME280;28147;47.520;18.920;2022-11-15T02:08:51;98787.38;;;12.34;50.29
42519;BME280;28147;47.520;18.920;2022-11-15T02:11:17;98792.69;;;12.46;49.83
42519;BME280;28147;47.520;18.920;2022-11-15T02:13:43;98796.13;;;12.70;49.38
42519;BME280;28147;47.520;18.920;2022-11-15T02:18:43;98783.97;;;12.51;49.83
42519;BME280;28147;47.520;18.920;2022-11-15T02:21:43;98784.06;;;12.56;49.68
42519;BME280;28147;47.520;18.920;2022-11-15T02:32:54;98768.78;;;12.51;49.75
42519;BME280;28147;47.520;18.920;2022-11-15T02:35:34;98768.34;;;12.43;49.76
42519;BME280;28147;47.520;18.920;2022-11-15T02:44:26;98766.25;;;12.73;48.93
42519;BME280;28147;47.520;18.920;2022-11-15T02:47:02;98761.81;;;12.79;48.50
42519;BME280;28147;47.520;18.920;2022-11-15T02:49:41;98769.41;;;12.70;48.74
42519;BME280;28147;47.520;18.920;2022-11-15T02:52:08;98762.53;;;12.74;48.90
42519;BME280;28147;47.520;18.920;2022-11-15T02:54:34;98767.44;;;12.65;49.21
42519;BME280;28147;47.520;18.920;2022-11-15T02:57:05;98767.81;;;12.57;49.11
42519;BME280;28147;47.520;18.920;2022-11-15T02:59:51;98771.00;;;12.31;49.55
42519;BME280;28147;47.520;18.920;2022-11-15T03:05:41;98763.94;;;12.36;50.01
42519;BME280;28147;47.520;18.920;2022-11-15T03:08:11;98765.44;;;12.32;50.05
42519;BME280;28147;47.520;18.920;2022-11-15T03:16:30;98759.22;;;12.03;51.03
42519;BME280;28147;47.520;18.920;2022-11-15T03:19:25;98750.63;;;12.13;51.12
42519;BME280;28147;47.520;18.920;2022-11-15T03:21:48;98750.28;;;12.21;50.62
42519;BME280;28147;47.520;18.920;2022-11-15T03:24:15;98745.63;;;12.28;50.71
42519;BME280;28147;47.520;18.920;2022-11-15T03:26:44;98750.72;;;12.18;50.56
42519;BME280;28147;47.520;18.920;2022-11-15T03:29:17;98741.47;;;12.21;50.97
42519;BME280;28147;47.520;18.920;2022-11-15T03:31:48;98740.53;;;12.03;51.32
42519;BME280;28147;47.520;18.920;2022-11-15T03:34:28;98740.19;;;12.00;51.62
42519;BME280;28147;47.520;18.920;2022-11-15T03:36:55;98735.56;;;12.07;51.37
42519;BME280;28147;47.520;18.920;2022-11-15T03:39:21;98740.31;;;11.93;51.67
42519;BME280;28147;47.520;18.920;2022-11-15T03:47:17;98728.84;;;11.92;51.63
42519;BME280;28147;47.520;18.920;2022-11-15T03:49:50;98724.66;;;11.97;51.46
42519;BME280;28147;47.520;18.920;2022-11-15T03:52:20;98722.25;;;11.83;52.21
42519;BME280;28147;47.520;18.920;2022-11-15T03:54:53;98725.59;;;11.79;52.41
42519;BME280;28147;47.520;18.920;2022-11-15T03:57:19;98721.53;;;11.88;52.28
42519;BME280;28147;47.520;18.920;2022-11-15T03:59:45;98710.97;;;11.58;53.43
42519;BME280;28147;47.520;18.920;2022-11-15T04:02:11;98694.88;;;11.41;53.54
42519;BME280;28147;47.520;18.920;2022-11-15T04:04:37;98697.75;;;11.39;53.53
42519;BME280;28147;47.520;18.920;2022-11-15T04:07:02;98700.31;;;11.34;53.66
42519;BME280;28147;47.520;18.920;2022-11-15T04:09:28;98720.25;;;11.67;52.60
42519;BME280;28147;47.520;18.920;2022-11-15T04:11:53;98710.75;;;11.71;52.48
42519;BME280;28147;47.520;18.920;2022-11-15T04:14:18;98698.81;;;11.85;52.19
42519;BME280;28147;47.520;18.920;2022-11-15T04:16:44;98695.09;;;11.86;52.23
42519;BME280;28147;47.520;18.920;2022-11-15T04:19:09;98696.13;;;11.85;52.16
42519;BME280;28147;47.520;18.920;2022-11-15T04:21:53;98702.38;;;12.03;51.66
42519;BME280;28147;47.520;18.920;2022-11-15T04:24:37;98710.75;;;11.95;52.00
42519;BME280;28147;47.520;18.920;2022-11-15T04:27:02;98714.19;;;12.07;51.73
42519;BME280;28147;47.520;18.920;2022-11-15T04:29:28;98704.25;;;12.02;52.25
42519;BME280;28147;47.520;18.920;2022-11-15T04:31:59;98706.56;;;11.99;51.89
42519;BME280;28147;47.520;18.920;2022-11-15T04:34:25;98709.69;;;11.96;52.01
42519;BME280;28147;47.520;18.920;2022-11-15T04:36:50;98707.69;;;12.14;51.67
42519;BME280;28147;47.520;18.920;2022-11-15T04:39:34;98702.47;;;12.08;51.65
42519;BME280;28147;47.520;18.920;2022-11-15T04:41:59;98697.72;;;12.10;51.75
42519;BME280;28147;47.520;18.920;2022-11-15T04:44:25;98696.13;;;12.09;52.14
42519;BME280;28147;47.520;18.920;2022-11-15T04:46:50;98693.09;;;12.05;52.10
42519;BME280;28147;47.520;18.920;2022-11-15T04:49:16;98684.16;;;12.00;52.41
42519;BME280;28147;47.520;18.920;2022-11-15T04:51:41;98689.63;;;12.05;52.52
42519;BME280;28147;47.520;18.920;2022-11-15T04:54:06;98674.78;;;11.85;52.70
42519;BME280;28147;47.520;18.920;2022-11-15T04:56:32;98683.66;;;12.14;52.20
42519;BME280;28147;47.520;18.920;2022-11-15T04:58:57;98691.94;;;12.13;52.35
42519;BME280;28147;47.520;18.920;2022-11-15T05:01:22;98685.44;;;12.09;52.85
42519;BME280;28147;47.520;18.920;2022-11-15T05:03:48;98689.13;;;12.08;52.63
42519;BME280;28147;47.520;18.920;2022-11-15T05:06:32;98688.31;;;12.07;52.61
42519;BME280;28147;47.520;18.920;2022-11-15T05:08:57;98697.69;;;12.22;51.98
42519;BME280;28147;47.520;18.920;2022-11-15T05:11:23;98692.38;;;12.10;52.65
42519;BME280;28147;47.520;18.920;2022-11-15T05:13:49;98700.94;;;12.12;52.87
42519;BME280;28147;47.520;18.920;2022-11-15T05:16:15;98700.03;;;12.18;52.39
42519;BME280;28147;47.520;18.920;2022-11-15T05:18:41;98694.69;;;12.18;52.28
42519;BME280;28147;47.520;18.920;2022-11-15T05:21:09;98701.50;;;12.26;52.08
42519;BME280;28147;47.520;18.920;2022-11-15T05:23:35;98698.06;;;12.13;52.26
42519;BME280;28147;47.520;18.920;2022-11-15T05:26:02;98695.88;;;12.10;52.64
42519;BME280;28147;47.520;18.920;2022-11-15T05:28:28;98693.06;;;12.17;52.51
42519;BME280;28147;47.520;18.920;2022-11-15T05:30:53;98689.91;;;12.32;51.84
42519;BME280;28147;47.520;18.920;2022-11-15T05:33:18;98686.59;;;12.13;52.21
42519;BME280;28147;47.520;18.920;2022-11-15T05:35:51;98676.78;;;12.30;52.27
42519;BME280;28147;47.520;18.920;2022-11-15T05:38:19;98671.59;;;12.12;52.90
42519;BME280;28147;47.520;18.920;2022-11-15T05:40:45;98663.88;;;11.99;53.71
42519;BME280;28147;47.520;18.920;2022-11-15T05:43:10;98673.28;;;12.01;54.07
42519;BME280;28147;47.520;18.920;2022-11-15T05:45:36;98668.94;;;12.12;53.50
42519;BME280;28147;47.520;18.920;2022-11-15T05:48:05;98670.31;;;12.14;53.61
42519;BME280;28147;47.520;18.920;2022-11-15T05:50:31;98670.38;;;11.91;54.16
42519;BME280;28147;47.520;18.920;2022-11-15T05:52:57;98674.53;;;12.10;53.65
42519;BME280;28147;47.520;18.920;2022-11-15T05:55:23;98668.53;;;11.91;54.15
42519;BME280;28147;47.520;18.920;2022-11-15T05:57:48;98663.91;;;11.75;55.17
42519;BME280;28147;47.520;18.920;2022-11-15T06:00:14;98667.97;;;11.89;55.12
42519;BME280;28147;47.520;18.920;2022-11-15T06:02:39;98670.50;;;11.96;55.13
42519;BME280;28147;47.520;18.920;2022-11-15T06:05:05;98672.44;;;12.01;55.33
42519;BME280;28147;47.520;18.920;2022-11-15T06:07:31;98678.66;;;12.18;54.68
42519;BME280;28147;47.520;18.920;2022-11-15T06:09:56;98676.94;;;12.12;54.77
42519;BME280;28147;47.520;18.920;2022-11-15T06:12:21;98674.56;;;12.27;54.58
42519;BME280;28147;47.520;18.920;2022-11-15T06:14:47;98672.66;;;12.11;55.30
42519;BME280;28147;47.520;18.920;2022-11-15T06:17:12;98660.16;;;12.40;54.71
42519;BME280;28147;47.520;18.920;2022-11-15T06:19:37;98658.41;;;12.34;55.22
42519;BME280;28147;47.520;18.920;2022-11-15T06:22:03;98662.16;;;12.33;54.90
42519;BME280;28147;47.520;18.920;2022-11-15T06:24:28;98669.44;;;12.37;55.11
42519;BME280;28147;47.520;18.920;2022-11-15T06:26:54;98665.13;;;12.08;55.96
42519;BME280;28147;47.520;18.920;2022-11-15T06:29:19;98669.09;;;12.05;56.28
42519;BME280;28147;47.520;18.920;2022-11-15T06:31:44;98674.56;;;11.99;56.44
42519;BME280;28147;47.520;18.920;2022-11-15T06:34:10;98676.31;;;12.33;55.88
42519;BME280;28147;47.520;18.920;2022-11-15T06:36:35;98686.72;;;12.47;55.81
42519;BME280;28147;47.520;18.920;2022-11-15T06:39:03;98690.91;;;12.43;56.04
42519;BME280;28147;47.520;18.920;2022-11-15T06:41:28;98689.66;;;12.33;56.08
42519;BME280;28147;47.520;18.920;2022-11-15T06:43:54;98683.88;;;12.53;55.49
42519;BME280;28147;47.520;18.920;2022-11-15T06:46:19;98691.69;;;12.72;55.21
42519;BME280;28147;47.520;18.920;2022-11-15T06:48:44;98688.94;;;12.66;55.33
42519;BME280;28147;47.520;18.920;2022-11-15T06:51:10;98686.06;;;12.56;55.66
42519;BME280;28147;47.520;18.920;2022-11-15T06:53:36;98679.59;;;12.81;55.17
42519;BME280;28147;47.520;18.920;2022-11-15T06:56:06;98678.00;;;12.68;55.70
42519;BME280;28147;47.520;18.920;2022-11-15T06:58:32;98677.56;;;12.43;56.63
42519;BME280;28147;47.520;18.920;2022-11-15T07:01:02;98673.09;;;12.48;56.53
42519;BME280;28147;47.520;18.920;2022-11-15T07:03:28;98670.63;;;12.58;56.49
42519;BME280;28147;47.520;18.920;2022-11-15T07:05:55;98678.66;;;12.18;57.47
42519;BME280;28147;47.520;18.920;2022-11-15T07:08:21;98679.59;;;12.52;56.78
42519;BME280;28147;47.520;18.920;2022-11-15T07:10:47;98678.88;;;12.28;57.67
42519;BME280;28147;47.520;18.920;2022-11-15T07:13:13;98668.56;;;12.49;57.65
42519;BME280;28147;47.520;18.920;2022-11-15T07:15:38;98667.09;;;12.41;58.59
42519;BME280;28147;47.520;18.920;2022-11-15T07:18:03;98659.81;;;12.36;59.11
42519;BME280;28147;47.520;18.920;2022-11-15T07:20:29;98665.50;;;12.57;58.85
42519;BME280;28147;47.520;18.920;2022-11-15T07:23:02;98666.75;;;12.37;59.44
42519;BME280;28147;47.520;18.920;2022-11-15T07:25:28;98666.38;;;12.46;59.37
42519;BME280;28147;47.520;18.920;2022-11-15T07:27:55;98657.97;;;12.54;58.75
42519;BME280;28147;47.520;18.920;2022-11-15T07:30:21;98661.22;;;12.56;59.15
42519;BME280;28147;47.520;18.920;2022-11-15T07:32:46;98656.94;;;12.55;59.17
42519;BME280;28147;47.520;18.920;2022-11-15T07:35:11;98646.19;;;12.21;60.11
42519;BME280;28147;47.520;18.920;2022-11-15T07:37:37;98661.81;;;12.29;59.93
42519;BME280;28147;47.520;18.920;2022-11-15T07:40:02;98661.56;;;12.02;60.61
42519;BME280;28147;47.520;18.920;2022-11-15T07:42:31;98660.28;;;12.05;60.30
42519;BME280;28147;47.520;18.920;2022-11-15T07:45:14;98651.31;;;12.11;60.24
42519;BME280;28147;47.520;18.920;2022-11-15T07:47:40;98651.31;;;12.11;60.41
42519;BME280;28147;47.520;18.920;2022-11-15T07:50:05;98655.78;;;12.22;60.27
42519;BME280;28147;47.520;18.920;2022-11-15T07:52:31;98650.47;;;12.22;60.47
42519;BME280;28147;47.520;18.920;2022-11-15T07:54:56;98651.44;;;12.16;60.10
42519;BME280;28147;47.520;18.920;2022-11-15T07:57:21;98657.09;;;12.08;60.91
42519;BME280;28147;47.520;18.920;2022-11-15T07:59:47;98653.16;;;12.10;60.69
42519;BME280;28147;47.520;18.920;2022-11-15T08:02:12;98655.06;;;12.27;60.19
42519;BME280;28147;47.520;18.920;2022-11-15T08:04:37;98664.94;;;12.26;60.25
42519;BME280;28147;47.520;18.920;2022-11-15T08:07:03;98653.88;;;12.34;60.21
42519;BME280;28147;47.520;18.920;2022-11-15T08:09:28;98641.47;;;12.57;63.75
42519;BME280;28147;47.520;18.920;2022-11-15T08:11:54;98636.91;;;12.69;59.77
42519;BME280;28147;47.520;18.920;2022-11-15T08:14:19;98636.81;;;12.64;59.99
42519;BME280;28147;47.520;18.920;2022-11-15T08:16:47;98636.59;;;12.82;59.68
42519;BME280;28147;47.520;18.920;2022-11-15T08:19:12;98628.56;;;12.82;58.92
42519;BME280;28147;47.520;18.920;2022-11-15T08:21:37;98632.84;;;12.83;58.52
42519;BME280;28147;47.520;18.920;2022-11-15T08:24:03;98634.78;;;12.71;58.83
42519;BME280;28147;47.520;18.920;2022-11-15T08:26:28;98627.69;;;12.77;59.03
42519;BME280;28147;47.520;18.920;2022-11-15T08:28:55;98610.78;;;12.88;58.72
42519;BME280;28147;47.520;18.920;2022-11-15T08:31:20;98610.69;;;12.66;59.28
42519;BME280;28147;47.520;18.920;2022-11-15T08:33:46;98612.63;;;12.71;59.00
42519;BME280;28147;47.520;18.920;2022-11-15T08:36:15;98592.78;;;13.00;58.47
42519;BME280;28147;47.520;18.920;2022-11-15T08:38:41;98602.09;;;12.64;59.05
42519;BME280;28147;47.520;18.920;2022-11-15T08:41:07;98598.13;;;12.83;58.22
42519;BME280;28147;47.520;18.920;2022-11-15T08:43:32;98610.50;;;12.89;57.98
42519;BME280;28147;47.520;18.920;2022-11-15T08:45:58;98600.72;;;12.78;58.52
42519;BME280;28147;47.520;18.920;2022-11-15T08:48:24;98608.34;;;13.03;57.61
42519;BME280;28147;47.520;18.920;2022-11-15T08:50:54;98605.91;;;12.85;58.51
42519;BME280;28147;47.520;18.920;2022-11-15T08:53:20;98604.34;;;12.55;59.48
42519;BME280;28147;47.520;18.920;2022-11-15T08:55:45;98604.34;;;12.72;59.63
42519;BME280;28147;47.520;18.920;2022-11-15T08:58:11;98589.44;;;12.43;61.48
42519;BME280;28147;47.520;18.920;2022-11-15T09:00:36;98595.06;;;12.58;61.00
42519;BME280;28147;47.520;18.920;2022-11-15T09:03:05;98590.75;;;12.57;61.33
42519;BME280;28147;47.520;18.920;2022-11-15T09:05:31;98603.94;;;12.80;60.14
42519;BME280;28147;47.520;18.920;2022-11-15T09:07:57;98585.41;;;12.57;60.01
42519;BME280;28147;47.520;18.920;2022-11-15T09:10:22;98589.84;;;12.51;60.67
42519;BME280;28147;47.520;18.920;2022-11-15T09:12:48;98580.31;;;12.55;60.25
42519;BME280;28147;47.520;18.920;2022-11-15T09:15:14;98578.53;;;12.44;60.93
42519;BME280;28147;47.520;18.920;2022-11-15T09:17:40;98579.19;;;12.23;61.02
42519;BME280;28147;47.520;18.920;2022-11-15T09:20:06;98588.00;;;12.52;60.90
42519;BME280;28147;47.520;18.920;2022-11-15T09:22:31;98576.38;;;12.01;62.36
42519;BME280;28147;47.520;18.920;2022-11-15T09:24:57;98576.13;;;12.14;61.76
42519;BME280;28147;47.520;18.920;2022-11-15T09:27:22;98576.78;;;11.92;62.97
42519;BME280;28147;47.520;18.920;2022-11-15T09:29:48;98582.00;;;12.45;61.54
42519;BME280;28147;47.520;18.920;2022-11-15T09:32:13;98578.19;;;12.57;61.43
42519;BME280;28147;47.520;18.920;2022-11-15T09:34:38;98586.22;;;12.74;60.87
42519;BME280;28147;47.520;18.920;2022-11-15T09:37:04;98589.13;;;12.73;60.47
42519;BME280;28147;47.520;18.920;2022-11-15T09:39:29;98574.72;;;12.90;60.24
42519;BME280;28147;47.520;18.920;2022-11-15T09:42:04;98568.78;;;13.05;60.22
42519;BME280;28147;47.520;18.920;2022-11-15T09:44:42;98571.56;;;13.27;59.97
42519;BME280;28147;47.520;18.920;2022-11-15T09:50:00;98550.47;;;13.31;59.45
42519;BME280;28147;47.520;18.920;2022-11-15T09:52:27;98557.06;;;13.23;59.89
42519;BME280;28147;47.520;18.920;2022-11-15T09:54:53;98558.81;;;13.18;60.47
42519;BME280;28147;47.520;18.920;2022-11-15T09:57:32;98567.38;;;13.36;59.45
42519;BME280;28147;47.520;18.920;2022-11-15T10:00:24;98569.94;;;13.70;58.35
42519;BME280;28147;47.520;18.920;2022-11-15T10:03:45;98564.28;;;13.88;58.48
42519;BME280;28147;47.520;18.920;2022-11-15T10:05:49;98559.75;;;13.67;58.90
42519;BME280;28147;47.520;18.920;2022-11-15T10:11:01;98545.31;;;13.07;59.87
42519;BME280;28147;47.520;18.920;2022-11-15T10:13:52;98541.44;;;13.37;59.30
42519;BME280;28147;47.520;18.920;2022-11-15T10:27:39;98517.50;;;13.25;59.98
42519;BME280;28147;47.520;18.920;2022-11-15T10:30:16;98517.06;;;12.95;60.28
42519;BME280;28147;47.520;18.920;2022-11-15T10:32:44;98512.22;;;12.91;60.36
42519;BME280;28147;47.520;18.920;2022-11-15T10:35:26;98507.09;;;13.07;59.94
42519;BME280;28147;47.520;18.920;2022-11-15T10:38:04;98503.84;;;13.05;60.03
42519;BME280;28147;47.520;18.920;2022-11-15T10:40:30;98500.91;;;12.84;60.46
42519;BME280;28147;47.520;18.920;2022-11-15T10:43:18;98501.91;;;12.61;60.94
42519;BME280;28147;47.520;18.920;2022-11-15T10:45:45;98503.03;;;12.65;61.28
42519;BME280;28147;47.520;18.920;2022-11-15T10:50:43;98490.06;;;12.74;61.16
42519;BME280;28147;47.520;18.920;2022-11-15T10:53:24;98482.59;;;12.76;61.34
42519;BME280;28147;47.520;18.920;2022-11-15T10:55:59;98483.81;;;12.85;61.17
42519;BME280;28147;47.520;18.920;2022-11-15T10:58:41;98471.41;;;12.96;60.91
42519;BME280;28147;47.520;18.920;2022-11-15T11:01:25;98478.69;;;13.01;60.78
42519;BME280;28147;47.520;18.920;2022-11-15T11:06:27;98473.75;;;13.31;60.33
42519;BME280;28147;47.520;18.920;2022-11-15T11:11:23;98468.97;;;13.33;59.88
42519;BME280;28147;47.520;18.920;2022-11-15T11:13:48;98457.38;;;13.50;59.19
42519;BME280;28147;47.520;18.920;2022-11-15T11:16:21;98452.28;;;13.48;59.63
42519;BME280;28147;47.520;18.920;2022-11-15T11:19:19;98458.81;;;13.35;59.81
42519;BME280;28147;47.520;18.920;2022-11-15T11:24:55;98453.34;;;13.25;60.11
42519;BME280;28147;47.520;18.920;2022-11-15T11:32:45;98451.31;;;12.94;61.17
42519;BME280;28147;47.520;18.920;2022-11-15T11:35:34;98458.22;;;12.34;62.52
42519;BME280;28147;47.520;18.920;2022-11-15T11:38:34;98430.47;;;12.18;63.67
42519;BME280;28147;47.520;18.920;2022-11-15T11:49:00;98424.00;;;12.14;63.94
42519;BME280;28147;47.520;18.920;2022-11-15T11:51:38;98423.06;;;12.20;63.95
42519;BME280;28147;47.520;18.920;2022-11-15T11:54:22;98424.25;;;12.29;63.32
42519;BME280;28147;47.520;18.920;2022-11-15T11:56:50;98420.91;;;11.88;64.71
42519;BME280;28147;47.520;18.920;2022-11-15T11:59:21;98420.69;;;12.07;64.77
42519;BME280;28147;47.520;18.920;2022-11-15T12:01:48;98417.19;;;12.23;64.11
42519;BME280;28147;47.520;18.920;2022-11-15T12:04:29;98408.06;;;12.19;64.22
42519;BME280;28147;47.520;18.920;2022-11-15T12:06:59;98397.81;;;12.28;64.18
42519;BME280;28147;47.520;18.920;2022-11-15T12:09:38;98392.56;;;12.16;64.54
42519;BME280;28147;47.520;18.920;2022-11-15T12:12:17;98383.63;;;12.44;64.10
42519;BME280;28147;47.520;18.920;2022-11-15T12:14:52;98390.41;;;12.35;64.59
42519;BME280;28147;47.520;18.920;2022-11-15T12:17:23;98387.09;;;12.45;64.69
42519;BME280;28147;47.520;18.920;2022-11-15T12:19:49;98387.31;;;12.60;63.82
42519;BME280;28147;47.520;18.920;2022-11-15T12:25:06;98376.13;;;12.24;64.95
42519;BME280;28147;47.520;18.920;2022-11-15T12:27:50;98373.50;;;12.46;64.81
42519;BME280;28147;47.520;18.920;2022-11-15T12:30:19;98372.69;;;12.46;64.74
42519;BME280;28147;47.520;18.920;2022-11-15T12:32:58;98377.97;;;12.40;64.85
42519;BME280;28147;47.520;18.920;2022-11-15T12:35:29;98383.34;;;12.07;65.70
42519;BME280;28147;47.520;18.920;2022-11-15T12:37:56;98368.78;;;12.31;65.33
42519;BME280;28147;47.520;18.920;2022-11-15T12:40:25;98368.03;;;12.36;65.24
42519;BME280;28147;47.520;18.920;2022-11-15T12:45:42;98358.75;;;12.22;65.35
42519;BME280;28147;47.520;18.920;2022-11-15T13:06:45;98341.38;;;12.58;64.52
42519;BME280;28147;47.520;18.920;2022-11-15T13:12:07;98339.97;;;12.33;65.35
42519;BME280;28147;47.520;18.920;2022-11-15T13:17:24;98339.63;;;12.47;64.95
42519;BME280;28147;47.520;18.920;2022-11-15T13:20:28;98337.56;;;12.15;66.16
42519;BME280;28147;47.520;18.920;2022-11-15T13:23:07;98341.22;;;12.48;65.35
42519;BME280;28147;47.520;18.920;2022-11-15T13:30:55;98331.03;;;12.06;67.29
42519;BME280;28147;47.520;18.920;2022-11-15T13:33:35;98311.84;;;12.48;66.21
42519;BME280;28147;47.520;18.920;2022-11-15T13:36:08;98327.03;;;12.25;67.32
42519;BME280;28147;47.520;18.920;2022-11-15T13:38:39;98321.31;;;12.38;66.28
42519;BME280;28147;47.520;18.920;2022-11-15T13:41:20;98320.34;;;12.45;65.94
42519;BME280;28147;47.520;18.920;2022-11-15T13:43:46;98319.56;;;12.05;67.73
42519;BME280;28147;47.520;18.920;2022-11-15T13:46:16;98305.28;;;12.55;66.56
42519;BME280;28147;47.520;18.920;2022-11-15T13:48:44;98296.69;;;12.75;66.29
42519;BME280;28147;47.520;18.920;2022-11-15T13:53:46;98284.03;;;12.65;64.54
42519;BME280;28147;47.520;18.920;2022-11-15T13:56:15;98291.03;;;12.50;64.56
42519;BME280;28147;47.520;18.920;2022-11-15T13:58:42;98289.44;;;12.49;63.93
42519;BME280;28147;47.520;18.920;2022-11-15T14:01:15;98288.75;;;12.36;63.76
42519;BME280;28147;47.520;18.920;2022-11-15T14:03:49;98291.56;;;12.47;63.45
42519;BME280;28147;47.520;18.920;2022-11-15T14:06:16;98283.91;;;12.33;63.70
42519;BME280;28147;47.520;18.920;2022-11-15T14:11:37;98274.00;;;12.12;64.27
42519;BME280;28147;47.520;18.920;2022-11-15T14:14:14;98275.41;;;12.36;63.55
42519;BME280;28147;47.520;18.920;2022-11-15T14:19:51;98284.47;;;11.80;64.00
42519;BME280;28147;47.520;18.920;2022-11-15T14:22:15;98282.16;;;11.83;64.69
42519;BME280;28147;47.520;18.920;2022-11-15T14:24:44;98278.75;;;11.88;64.54
42519;BME280;28147;47.520;18.920;2022-11-15T14:27:19;98274.53;;;11.41;65.97
42519;BME280;28147;47.520;18.920;2022-11-15T14:29:46;98280.28;;;11.84;65.20
42519;BME280;28147;47.520;18.920;2022-11-15T14:32:15;98269.25;;;11.80;65.04
42519;BME280;28147;47.520;18.920;2022-11-15T14:34:41;98255.22;;;12.02;64.63
42519;BME280;28147;47.520;18.920;2022-11-15T14:37:20;98258.84;;;11.96;64.69
42519;BME280;28147;47.520;18.920;2022-11-15T14:39:47;98259.94;;;12.16;64.23
42519;BME280;28147;47.520;18.920;2022-11-15T14:42:12;98260.38;;;11.91;64.85
42519;BME280;28147;47.520;18.920;2022-11-15T14:44:38;98255.31;;;11.90;65.24
42519;BME280;28147;47.520;18.920;2022-11-15T14:47:03;98247.06;;;11.58;66.16
42519;BME280;28147;47.520;18.920;2022-11-15T14:49:28;98247.63;;;11.43;66.82
42519;BME280;28147;47.520;18.920;2022-11-15T14:51:54;98252.72;;;11.78;66.21
42519;BME280;28147;47.520;18.920;2022-11-15T14:54:19;98246.59;;;11.61;66.16
42519;BME280;28147;47.520;18.920;2022-11-15T14:56:45;98250.38;;;11.31;67.77